sensor_id;sensor_type;location;lat;lon;timestamp;temperature;humidity
66343;DHT22;53144;51.524;5.080;2022-12-10T00:00:21;-2.46;96.44
66343;DHT22;53144;51.524;5.080;2022-12-10T00:02:46;-2.50;96.59
66343;DHT22;53144;51.524;5.080;2022-12-10T00:05:12;-2.55;96.83
66343;DHT22;53144;51.524;5.080;2022-12-10T00:07:37;-2.46;97.59
66343;DHT22;53144;51.524;5.080;2022-12-10T00:10:03;-2.39;97.85
66343;DHT22;53144;51.524;5.080;2022-12-10T00:12:28;-2.31;97.54
66343;DHT22;53144;51.524;5.080;2022-12-10T00:14:54;-2.24;97.78
66343;DHT22;53144;51.524;5.080;2022-12-10T00:17:19;-2.17;97.89
66343;DHT22;53144;51.524;5.080;2022-12-10T00:19:45;-2.18;97.91
66343;DHT22;53144;51.524;5.080;2022-12-10T00:22:10;-2.07;97.89
66343;DHT22;53144;51.524;5.080;2022-12-10T00:24:35;-1.99;98.20
66343;DHT22;53144;51.524;5.080;2022-12-10T00:27:01;-1.97;97.44
66343;DHT22;53144;51.524;5.080;2022-12-10T00:29:26;-1.91;97.59
66343;DHT22;53144;51.524;5.080;2022-12-10T00:31:52;-1.76;96.92
66343;DHT22;53144;51.524;5.080;2022-12-10T00:34:20;-1.71;96.77
66343;DHT22;53144;51.524;5.080;2022-12-10T00:36:47;-1.76;96.91
66343;DHT22;53144;51.524;5.080;2022-12-10T00:39:18;-1.63;96.85
66343;DHT22;53144;51.524;5.080;2022-12-10T00:41:44;-1.62;97.55
66343;DHT22;53144;51.524;5.080;2022-12-10T00:44:09;-1.71;96.88
66343;DHT22;53144;51.524;5.080;2022-12-10T00:46:35;-1.66;97.67
66343;DHT22;53144;51.524;5.080;2022-12-10T00:49:01;-1.60;96.73
66343;DHT22;53144;51.524;5.080;2022-12-10T00:51:27;-1.63;96.99
66343;DHT22;53144;51.524;5.080;2022-12-10T00:53:53;-1.56;97.02
66343;DHT22;53144;51.524;5.080;2022-12-10T00:56:23;-1.59;96.76
66343;DHT22;53144;51.524;5.080;2022-12-10T00:58:49;-1.57;97.28
66343;DHT22;53144;51.524;5.080;2022-12-10T01:01:24;-1.66;96.95
66343;DHT22;53144;51.524;5.080;2022-12-10T01:03:52;-1.67;97.00
66343;DHT22;53144;51.524;5.080;2022-12-10T01:06:24;-1.76;96.73
66343;DHT22;53144;51.524;5.080;2022-12-10T01:08:51;-1.80;96.75
66343;DHT22;53144;51.524;5.080;2022-12-10T01:11:19;-1.81;96.74
66343;DHT22;53144;51.524;5.080;2022-12-10T01:13:45;-1.88;96.72
66343;DHT22;53144;51.524;5.080;2022-12-10T01:16:13;-1.93;97.14
66343;DHT22;53144;51.524;5.080;2022-12-10T01:18:39;-1.71;96.93
66343;DHT22;53144;51.524;5.080;2022-12-10T01:21:07;-1.66;96.84
66343;DHT22;53144;51.524;5.080;2022-12-10T01:23:34;-1.60;96.57
66343;DHT22;53144;51.524;5.080;2022-12-10T01:26:04;-1.60;96.73
66343;DHT22;53144;51.524;5.080;2022-12-10T01:28:31;-1.56;96.90
66343;DHT22;53144;51.524;5.080;2022-12-10T01:31:02;-1.63;96.72
66343;DHT22;53144;51.524;5.080;2022-12-10T01:33:29;-1.50;96.88
66343;DHT22;53144;51.524;5.080;2022-12-10T01:35:54;-1.48;96.78
66343;DHT22;53144;51.524;5.080;2022-12-10T01:38:20;-1.60;96.75
66343;DHT22;53144;51.524;5.080;2022-12-10T01:40:45;-1.52;97.11
66343;DHT22;53144;51.524;5.080;2022-12-10T01:43:15;-1.56;97.14
66343;DHT22;53144;51.524;5.080;2022-12-10T01:45:40;-1.49;97.38
66343;DHT22;53144;51.524;5.080;2022-12-10T01:48:06;-1.48;97.28
66343;DHT22;53144;51.524;5.080;2022-12-10T01:50:31;-1.42;97.43
66343;DHT22;53144;51.524;5.080;2022-12-10T01:52:57;-1.49;97.20
66343;DHT22;53144;51.524;5.080;2022-12-10T01:55:55;-1.43;97.44
66343;DHT22;53144;51.524;5.080;2022-12-10T01:58:20;-1.39;97.49
66343;DHT22;53144;51.524;5.080;2022-12-10T02:03:38;-1.45;97.39
66343;DHT22;53144;51.524;5.080;2022-12-10T02:09:28;-1.34;97.28
66343;DHT22;53144;51.524;5.080;2022-12-10T02:14:54;-1.34;97.41
66343;DHT22;53144;51.524;5.080;2022-12-10T02:18:07;-1.28;97.39
66343;DHT22;53144;51.524;5.080;2022-12-10T02:20:18;-1.40;97.07
66343;DHT22;53144;51.524;5.080;2022-12-10T02:23:03;-1.38;97.30
66343;DHT22;53144;51.524;5.080;2022-12-10T02:25:46;-1.38;97.30
66343;DHT22;53144;51.524;5.080;2022-12-10T02:28:31;-1.34;97.51
66343;DHT22;53144;51.524;5.080;2022-12-10T02:31:00;-1.35;97.46
66343;DHT22;53144;51.524;5.080;2022-12-10T02:33:28;-1.29;97.60
66343;DHT22;53144;51.524;5.080;2022-12-10T02:35:57;-1.26;97.32
66343;DHT22;53144;51.524;5.080;2022-12-10T02:38:28;-1.28;97.54
66343;DHT22;53144;51.524;5.080;2022-12-10T02:41:02;-1.29;97.06
66343;DHT22;53144;51.524;5.080;2022-12-10T02:43:29;-1.28;97.16
66343;DHT22;53144;51.524;5.080;2022-12-10T02:45:57;-1.25;97.43
66343;DHT22;53144;51.524;5.080;2022-12-10T02:48:24;-1.16;97.66
66343;DHT22;53144;51.524;5.080;2022-12-10T02:50:50;-1.18;97.16
66343;DHT22;53144;51.524;5.080;2022-12-10T02:53:18;-1.16;97.23
66343;DHT22;53144;51.524;5.080;2022-12-10T02:56:02;-1.28;97.25
66343;DHT22;53144;51.524;5.080;2022-12-10T02:58:59;-1.34;97.27
66343;DHT22;53144;51.524;5.080;2022-12-10T03:01:47;-1.36;97.50
66343;DHT22;53144;51.524;5.080;2022-12-10T03:04:24;-1.34;97.71
66343;DHT22;53144;51.524;5.080;2022-12-10T03:06:53;-1.32;97.66
66343;DHT22;53144;51.524;5.080;2022-12-10T03:09:30;-1.28;97.25
66343;DHT22;53144;51.524;5.080;2022-12-10T03:12:02;-1.45;97.79
66343;DHT22;53144;51.524;5.080;2022-12-10T03:14:34;-1.53;98.03
66343;DHT22;53144;51.524;5.080;2022-12-10T03:17:01;-1.62;98.06
66343;DHT22;53144;51.524;5.080;2022-12-10T03:19:48;-1.50;98.69
66343;DHT22;53144;51.524;5.080;2022-12-10T03:22:16;-1.48;98.18
66343;DHT22;53144;51.524;5.080;2022-12-10T03:24:43;-1.49;98.37
66343;DHT22;53144;51.524;5.080;2022-12-10T03:27:11;-1.49;98.33
66343;DHT22;53144;51.524;5.080;2022-12-10T03:29:49;-1.52;98.19
66343;DHT22;53144;51.524;5.080;2022-12-10T03:32:16;-1.52;98.68
66343;DHT22;53144;51.524;5.080;2022-12-10T03:34:44;-1.46;98.60
66343;DHT22;53144;51.524;5.080;2022-12-10T03:37:12;-1.49;98.49
66343;DHT22;53144;51.524;5.080;2022-12-10T03:39:39;-1.46;98.50
66343;DHT22;53144;51.524;5.080;2022-12-10T03:42:05;-1.29;98.71
66343;DHT22;53144;51.524;5.080;2022-12-10T03:44:36;-1.24;98.58
66343;DHT22;53144;51.524;5.080;2022-12-10T03:47:05;-1.25;98.21
66343;DHT22;53144;51.524;5.080;2022-12-10T03:49:31;-1.31;98.02
66343;DHT22;53144;51.524;5.080;2022-12-10T03:51:56;-1.34;98.05
66343;DHT22;53144;51.524;5.080;2022-12-10T03:54:22;-1.31;98.06
66343;DHT22;53144;51.524;5.080;2022-12-10T03:56:48;-1.36;98.17
66343;DHT22;53144;51.524;5.080;2022-12-10T03:59:14;-1.35;98.13
66343;DHT22;53144;51.524;5.080;2022-12-10T04:01:41;-1.43;98.37
66343;DHT22;53144;51.524;5.080;2022-12-10T04:04:09;-1.40;98.46
66343;DHT22;53144;51.524;5.080;2022-12-10T04:06:37;-1.39;98.32
66343;DHT22;53144;51.524;5.080;2022-12-10T04:09:03;-1.34;98.54
66343;DHT22;53144;51.524;5.080;2022-12-10T04:11:28;-1.34;98.32
66343;DHT22;53144;51.524;5.080;2022-12-10T04:13:54;-1.31;98.47
66343;DHT22;53144;51.524;5.080;2022-12-10T04:16:38;-1.25;98.26
66343;DHT22;53144;51.524;5.080;2022-12-10T04:19:07;-1.42;98.29
66343;DHT22;53144;51.524;5.080;2022-12-10T04:21:34;-1.36;98.25
66343;DHT22;53144;51.524;5.080;2022-12-10T04:24:21;-1.48;98.70
66343;DHT22;53144;51.524;5.080;2022-12-10T04:27:12;-1.42;98.65
66343;DHT22;53144;51.524;5.080;2022-12-10T04:29:38;-1.38;98.56
66343;DHT22;53144;51.524;5.080;2022-12-10T04:32:04;-1.39;98.43
66343;DHT22;53144;51.524;5.080;2022-12-10T04:34:30;-1.39;98.63
66343;DHT22;53144;51.524;5.080;2022-12-10T04:36:57;-1.29;98.72
66343;DHT22;53144;51.524;5.080;2022-12-10T04:39:23;-1.36;98.53
66343;DHT22;53144;51.524;5.080;2022-12-10T04:41:49;-1.43;98.93
66343;DHT22;53144;51.524;5.080;2022-12-10T04:44:17;-1.38;98.92
66343;DHT22;53144;51.524;5.080;2022-12-10T04:46:44;-1.39;98.78
66343;DHT22;53144;51.524;5.080;2022-12-10T04:49:10;-1.43;99.02
66343;DHT22;53144;51.524;5.080;2022-12-10T04:51:35;-1.40;99.09
66343;DHT22;53144;51.524;5.080;2022-12-10T04:54:01;-1.38;98.98
66343;DHT22;53144;51.524;5.080;2022-12-10T04:56:27;-1.40;99.04
66343;DHT22;53144;51.524;5.080;2022-12-10T04:58:55;-1.25;99.27
66343;DHT22;53144;51.524;5.080;2022-12-10T05:01:24;-1.15;99.05
66343;DHT22;53144;51.524;5.080;2022-12-10T05:03:50;-1.13;98.62
66343;DHT22;53144;51.524;5.080;2022-12-10T05:06:19;-1.25;98.64
66343;DHT22;53144;51.524;5.080;2022-12-10T05:08:45;-1.12;98.81
66343;DHT22;53144;51.524;5.080;2022-12-10T05:11:16;-1.34;98.59
66343;DHT22;53144;51.524;5.080;2022-12-10T05:13:42;-1.29;98.60
66343;DHT22;53144;51.524;5.080;2022-12-10T05:16:11;-1.49;98.61
66343;DHT22;53144;51.524;5.080;2022-12-10T05:18:40;-1.66;99.31
66343;DHT22;53144;51.524;5.080;2022-12-10T05:21:08;-1.49;99.61
66343;DHT22;53144;51.524;5.080;2022-12-10T05:23:39;-1.50;99.41
66343;DHT22;53144;51.524;5.080;2022-12-10T05:26:09;-1.39;99.28
66343;DHT22;53144;51.524;5.080;2022-12-10T05:28:40;-1.34;99.07
66343;DHT22;53144;51.524;5.080;2022-12-10T05:31:10;-1.42;98.77
66343;DHT22;53144;51.524;5.080;2022-12-10T05:33:38;-1.42;98.95
66343;DHT22;53144;51.524;5.080;2022-12-10T05:36:04;-1.42;99.06
66343;DHT22;53144;51.524;5.080;2022-12-10T05:38:31;-1.48;99.01
66343;DHT22;53144;51.524;5.080;2022-12-10T05:41:05;-1.39;99.28
66343;DHT22;53144;51.524;5.080;2022-12-10T05:43:31;-1.48;98.84
66343;DHT22;53144;51.524;5.080;2022-12-10T05:46:01;-1.42;98.93
66343;DHT22;53144;51.524;5.080;2022-12-10T05:48:28;-1.46;99.03
66343;DHT22;53144;51.524;5.080;2022-12-10T05:50:56;-1.46;99.00
66343;DHT22;53144;51.524;5.080;2022-12-10T05:53:24;-1.55;99.29
66343;DHT22;53144;51.524;5.080;2022-12-10T05:55:49;-1.42;99.43
66343;DHT22;53144;51.524;5.080;2022-12-10T05:58:15;-1.43;99.26
66343;DHT22;53144;51.524;5.080;2022-12-10T06:00:41;-1.40;99.06
66343;DHT22;53144;51.524;5.080;2022-12-10T06:03:07;-1.46;98.84
66343;DHT22;53144;51.524;5.080;2022-12-10T06:05:38;-1.48;98.91
66343;DHT22;53144;51.524;5.080;2022-12-10T06:08:08;-1.49;98.93
66343;DHT22;53144;51.524;5.080;2022-12-10T06:10:34;-1.62;98.97
66343;DHT22;53144;51.524;5.080;2022-12-10T06:13:00;-1.62;99.34
66343;DHT22;53144;51.524;5.080;2022-12-10T06:15:26;-1.60;99.44
66343;DHT22;53144;51.524;5.080;2022-12-10T06:17:51;-1.71;99.42
66343;DHT22;53144;51.524;5.080;2022-12-10T06:20:17;-1.69;99.69
66343;DHT22;53144;51.524;5.080;2022-12-10T06:22:42;-1.62;99.72
66343;DHT22;53144;51.524;5.080;2022-12-10T06:25:15;-1.49;99.99
66343;DHT22;53144;51.524;5.080;2022-12-10T06:27:40;-1.46;99.68
66343;DHT22;53144;51.524;5.080;2022-12-10T06:30:06;-1.49;99.59
66343;DHT22;53144;51.524;5.080;2022-12-10T06:32:32;-1.38;99.59
66343;DHT22;53144;51.524;5.080;2022-12-10T06:34:57;-1.35;99.28
66343;DHT22;53144;51.524;5.080;2022-12-10T06:37:26;-1.42;98.97
66343;DHT22;53144;51.524;5.080;2022-12-10T06:39:51;-1.46;98.81
66343;DHT22;53144;51.524;5.080;2022-12-10T06:42:18;-1.53;98.90
66343;DHT22;53144;51.524;5.080;2022-12-10T06:44:44;-1.50;99.17
66343;DHT22;53144;51.524;5.080;2022-12-10T06:47:09;-1.50;99.08
66343;DHT22;53144;51.524;5.080;2022-12-10T06:49:35;-1.55;99.12
66343;DHT22;53144;51.524;5.080;2022-12-10T06:52:01;-1.63;99.14
66343;DHT22;53144;51.524;5.080;2022-12-10T06:54:27;-1.57;99.14
66343;DHT22;53144;51.524;5.080;2022-12-10T06:56:53;-1.69;99.07
66343;DHT22;53144;51.524;5.080;2022-12-10T06:59:18;-1.55;99.40
66343;DHT22;53144;51.524;5.080;2022-12-10T07:01:45;-1.46;99.60
66343;DHT22;53144;51.524;5.080;2022-12-10T07:04:11;-1.39;99.35
66343;DHT22;53144;51.524;5.080;2022-12-10T07:06:36;-1.35;99.27
66343;DHT22;53144;51.524;5.080;2022-12-10T07:09:02;-1.38;98.97
66343;DHT22;53144;51.524;5.080;2022-12-10T07:11:27;-1.38;98.82
66343;DHT22;53144;51.524;5.080;2022-12-10T07:13:56;-1.42;98.76
66343;DHT22;53144;51.524;5.080;2022-12-10T07:16:22;-1.38;98.74
66343;DHT22;53144;51.524;5.080;2022-12-10T07:18:49;-1.38;98.57
66343;DHT22;53144;51.524;5.080;2022-12-10T07:21:19;-1.40;98.61
66343;DHT22;53144;51.524;5.080;2022-12-10T07:23:45;-1.39;98.42
66343;DHT22;53144;51.524;5.080;2022-12-10T07:26:10;-1.39;98.47
66343;DHT22;53144;51.524;5.080;2022-12-10T07:28:39;-1.48;98.69
66343;DHT22;53144;51.524;5.080;2022-12-10T07:31:07;-1.48;98.95
66343;DHT22;53144;51.524;5.080;2022-12-10T07:33:33;-1.43;98.95
66343;DHT22;53144;51.524;5.080;2022-12-10T07:35:58;-1.45;98.58
66343;DHT22;53144;51.524;5.080;2022-12-10T07:38:27;-1.45;98.72
66343;DHT22;53144;51.524;5.080;2022-12-10T07:40:52;-1.45;99.10
66343;DHT22;53144;51.524;5.080;2022-12-10T07:43:18;-1.52;99.19
66343;DHT22;53144;51.524;5.080;2022-12-10T07:45:43;-1.56;99.14
66343;DHT22;53144;51.524;5.080;2022-12-10T07:48:09;-1.50;99.16
66343;DHT22;53144;51.524;5.080;2022-12-10T07:50:35;-1.48;99.03
66343;DHT22;53144;51.524;5.080;2022-12-10T07:53:00;-1.46;98.87
66343;DHT22;53144;51.524;5.080;2022-12-10T07:55:26;-1.48;98.66
66343;DHT22;53144;51.524;5.080;2022-12-10T07:57:51;-1.53;98.66
66343;DHT22;53144;51.524;5.080;2022-12-10T08:00:20;-1.56;98.77
66343;DHT22;53144;51.524;5.080;2022-12-10T08:02:45;-1.53;98.80
66343;DHT22;53144;51.524;5.080;2022-12-10T08:05:11;-1.55;98.65
66343;DHT22;53144;51.524;5.080;2022-12-10T08:07:36;-1.48;98.54
66343;DHT22;53144;51.524;5.080;2022-12-10T08:10:02;-1.55;98.51
66343;DHT22;53144;51.524;5.080;2022-12-10T08:12:28;-1.45;98.82
66343;DHT22;53144;51.524;5.080;2022-12-10T08:14:56;-1.49;98.62
66343;DHT22;53144;51.524;5.080;2022-12-10T08:17:24;-1.49;98.74
66343;DHT22;53144;51.524;5.080;2022-12-10T08:19:49;-1.46;98.82
66343;DHT22;53144;51.524;5.080;2022-12-10T08:22:16;-1.40;99.09
66343;DHT22;53144;51.524;5.080;2022-12-10T08:24:41;-1.36;99.12
66343;DHT22;53144;51.524;5.080;2022-12-10T08:27:07;-1.46;98.94
66343;DHT22;53144;51.524;5.080;2022-12-10T08:29:32;-1.32;99.12
66343;DHT22;53144;51.524;5.080;2022-12-10T08:31:58;-1.26;99.07
66343;DHT22;53144;51.524;5.080;2022-12-10T08:34:23;-1.20;98.66
66343;DHT22;53144;51.524;5.080;2022-12-10T08:36:48;-1.19;98.73
66343;DHT22;53144;51.524;5.080;2022-12-10T08:39:17;-1.16;98.47
66343;DHT22;53144;51.524;5.080;2022-12-10T08:41:46;-1.13;98.31
66343;DHT22;53144;51.524;5.080;2022-12-10T08:44:12;-1.18;98.35
66343;DHT22;53144;51.524;5.080;2022-12-10T08:46:38;-1.25;98.40
66343;DHT22;53144;51.524;5.080;2022-12-10T08:49:04;-1.11;98.82
66343;DHT22;53144;51.524;5.080;2022-12-10T08:51:30;-1.28;98.44
66343;DHT22;53144;51.524;5.080;2022-12-10T08:53:55;-1.25;98.49
66343;DHT22;53144;51.524;5.080;2022-12-10T08:56:21;-1.19;98.32
66343;DHT22;53144;51.524;5.080;2022-12-10T08:58:46;-1.22;98.20
66343;DHT22;53144;51.524;5.080;2022-12-10T09:01:14;-1.29;98.31
66343;DHT22;53144;51.524;5.080;2022-12-10T09:03:40;-1.18;98.76
66343;DHT22;53144;51.524;5.080;2022-12-10T09:06:09;-1.22;98.11
66343;DHT22;53144;51.524;5.080;2022-12-10T09:08:35;-1.16;98.45
66343;DHT22;53144;51.524;5.080;2022-12-10T09:11:06;-1.24;98.14
66343;DHT22;53144;51.524;5.080;2022-12-10T09:13:31;-1.16;98.80
66343;DHT22;53144;51.524;5.080;2022-12-10T09:15:57;-0.98;98.91
66343;DHT22;53144;51.524;5.080;2022-12-10T09:18:22;-0.97;98.37
66343;DHT22;53144;51.524;5.080;2022-12-10T09:20:48;-0.99;98.54
66343;DHT22;53144;51.524;5.080;2022-12-10T09:23:13;-0.88;98.43
66343;DHT22;53144;51.524;5.080;2022-12-10T09:25:39;-0.95;98.06
66343;DHT22;53144;51.524;5.080;2022-12-10T09:28:04;-0.87;98.26
66343;DHT22;53144;51.524;5.080;2022-12-10T09:30:30;-0.91;98.12
66343;DHT22;53144;51.524;5.080;2022-12-10T09:32:55;-0.88;98.01
66343;DHT22;53144;51.524;5.080;2022-12-10T09:35:23;-0.85;98.23
66343;DHT22;53144;51.524;5.080;2022-12-10T09:37:48;-0.83;98.10
66343;DHT22;53144;51.524;5.080;2022-12-10T09:40:19;-0.88;98.05
66343;DHT22;53144;51.524;5.080;2022-12-10T09:42:55;-0.84;98.59
66343;DHT22;53144;51.524;5.080;2022-12-10T09:48:03;-1.04;97.85
66343;DHT22;53144;51.524;5.080;2022-12-10T09:50:35;-1.04;98.55
66343;DHT22;53144;51.524;5.080;2022-12-10T09:53:07;-1.05;98.41
66343;DHT22;53144;51.524;5.080;2022-12-10T09:55:42;-1.13;98.34
66343;DHT22;53144;51.524;5.080;2022-12-10T09:58:21;-0.91;98.71
66343;DHT22;53144;51.524;5.080;2022-12-10T10:00:51;-0.84;98.53
66343;DHT22;53144;51.524;5.080;2022-12-10T10:03:17;-0.80;98.03
66343;DHT22;53144;51.524;5.080;2022-12-10T10:05:46;-0.73;98.32
66343;DHT22;53144;51.524;5.080;2022-12-10T10:08:38;-0.71;97.97
66343;DHT22;53144;51.524;5.080;2022-12-10T10:11:03;-0.83;97.68
66343;DHT22;53144;51.524;5.080;2022-12-10T10:13:39;-0.89;97.80
66343;DHT22;53144;51.524;5.080;2022-12-10T10:16:26;-0.74;97.95
66343;DHT22;53144;51.524;5.080;2022-12-10T10:19:01;-0.78;98.11
66343;DHT22;53144;51.524;5.080;2022-12-10T10:21:36;-0.73;97.86
66343;DHT22;53144;51.524;5.080;2022-12-10T10:24:07;-0.74;97.61
66343;DHT22;53144;51.524;5.080;2022-12-10T10:26:35;-0.74;97.63
66343;DHT22;53144;51.524;5.080;2022-12-10T10:29:04;-0.73;97.53
66343;DHT22;53144;51.524;5.080;2022-12-10T10:31:31;-0.74;97.86
66343;DHT22;53144;51.524;5.080;2022-12-10T10:34:06;-0.64;97.78
66343;DHT22;53144;51.524;5.080;2022-12-10T10:36:33;-0.71;97.82
66343;DHT22;53144;51.524;5.080;2022-12-10T10:41:44;-0.78;98.16
66343;DHT22;53144;51.524;5.080;2022-12-10T10:44:15;-0.80;98.37
66343;DHT22;53144;51.524;5.080;2022-12-10T10:46:42;-0.74;97.95
66343;DHT22;53144;51.524;5.080;2022-12-10T10:49:21;-0.67;97.70
66343;DHT22;53144;51.524;5.080;2022-12-10T10:51:47;-0.76;97.66
66343;DHT22;53144;51.524;5.080;2022-12-10T10:54:31;-0.84;97.74
66343;DHT22;53144;51.524;5.080;2022-12-10T10:56:57;-0.67;98.05
66343;DHT22;53144;51.524;5.080;2022-12-10T10:59:33;-0.63;97.96
66343;DHT22;53144;51.524;5.080;2022-12-10T11:02:15;-0.59;97.66
66343;DHT22;53144;51.524;5.080;2022-12-10T11:04:48;-0.64;97.59
66343;DHT22;53144;51.524;5.080;2022-12-10T11:07:26;-0.63;97.67
66343;DHT22;53144;51.524;5.080;2022-12-10T11:09:57;-0.76;97.78
66343;DHT22;53144;51.524;5.080;2022-12-10T11:12:31;-0.76;97.96
66343;DHT22;53144;51.524;5.080;2022-12-10T11:14:58;-0.84;98.08
66343;DHT22;53144;51.524;5.080;2022-12-10T11:17:25;-0.78;98.45
66343;DHT22;53144;51.524;5.080;2022-12-10T11:20:20;-0.73;98.76
66343;DHT22;53144;51.524;5.080;2022-12-10T11:22:58;-0.66;98.63
66343;DHT22;53144;51.524;5.080;2022-12-10T11:25:48;-0.61;98.58
66343;DHT22;53144;51.524;5.080;2022-12-10T11:28:29;-0.59;98.35
66343;DHT22;53144;51.524;5.080;2022-12-10T11:36:47;-0.56;98.02
66343;DHT22;53144;51.524;5.080;2022-12-10T11:39:21;-0.60;98.25
66343;DHT22;53144;51.524;5.080;2022-12-10T11:42:10;-0.63;98.09
66343;DHT22;53144;51.524;5.080;2022-12-10T11:45:06;-0.64;97.98
66343;DHT22;53144;51.524;5.080;2022-12-10T11:50:32;-0.68;98.29
66343;DHT22;53144;51.524;5.080;2022-12-10T11:59:04;-0.57;98.26
66343;DHT22;53144;51.524;5.080;2022-12-10T12:13:09;-0.47;98.22
66343;DHT22;53144;51.524;5.080;2022-12-10T12:15:43;-0.41;98.39
66343;DHT22;53144;51.524;5.080;2022-12-10T12:18:25;-0.43;98.01
66343;DHT22;53144;51.524;5.080;2022-12-10T12:20:57;-0.47;98.11
66343;DHT22;53144;51.524;5.080;2022-12-10T12:23:37;-0.44;98.02
66343;DHT22;53144;51.524;5.080;2022-12-10T12:26:13;-0.43;97.82
66343;DHT22;53144;51.524;5.080;2022-12-10T12:31:40;-0.41;97.80
66343;DHT22;53144;51.524;5.080;2022-12-10T12:34:21;-0.43;98.16
66343;DHT22;53144;51.524;5.080;2022-12-10T12:36:57;-0.33;98.26
66343;DHT22;53144;51.524;5.080;2022-12-10T12:39:36;-0.33;97.88
66343;DHT22;53144;51.524;5.080;2022-12-10T12:42:35;-0.26;98.02
66343;DHT22;53144;51.524;5.080;2022-12-10T12:45:12;-0.26;97.91
66343;DHT22;53144;51.524;5.080;2022-12-10T12:47:49;-0.28;98.19
66343;DHT22;53144;51.524;5.080;2022-12-10T12:50:43;-0.18;98.14
66343;DHT22;53144;51.524;5.080;2022-12-10T12:53:19;-0.19;97.89
66343;DHT22;53144;51.524;5.080;2022-12-10T12:56:05;-0.23;97.83
66343;DHT22;53144;51.524;5.080;2022-12-10T12:58:43;-0.20;97.94
66343;DHT22;53144;51.524;5.080;2022-12-10T13:01:24;-0.22;97.85
66343;DHT22;53144;51.524;5.080;2022-12-10T13:03:56;-0.22;97.86
66343;DHT22;53144;51.524;5.080;2022-12-10T13:06:30;-0.15;97.91
66343;DHT22;53144;51.524;5.080;2022-12-10T13:11:41;-0.20;97.97
66343;DHT22;53144;51.524;5.080;2022-12-10T13:24:19;-0.19;98.03
66343;DHT22;53144;51.524;5.080;2022-12-10T13:29:55;-0.22;98.03
66343;DHT22;53144;51.524;5.080;2022-12-10T13:40:40;-0.23;98.15
66343;DHT22;53144;51.524;5.080;2022-12-10T13:46:40;-0.25;98.39
66343;DHT22;53144;51.524;5.080;2022-12-10T13:49:56;-0.16;98.73
66343;DHT22;53144;51.524;5.080;2022-12-10T13:55:32;-0.13;98.36
66343;DHT22;53144;51.524;5.080;2022-12-10T14:01:03;-0.13;98.46
66343;DHT22;53144;51.524;5.080;2022-12-10T14:03:49;0.01;98.73
66343;DHT22;53144;51.524;5.080;2022-12-10T14:06:32;-0.03;98.28
66343;DHT22;53144;51.524;5.080;2022-12-10T14:09:33;-0.02;98.35
66343;DHT22;53144;51.524;5.080;2022-12-10T14:12:14;-0.03;98.14
66343;DHT22;53144;51.524;5.080;2022-12-10T14:15:04;-0.03;98.21
66343;DHT22;53144;51.524;5.080;2022-12-10T14:17:34;0.05;98.48
66343;DHT22;53144;51.524;5.080;2022-12-10T14:20:03;-0.05;98.39
66343;DHT22;53144;51.524;5.080;2022-12-10T14:22:37;0.09;98.60
66343;DHT22;53144;51.524;5.080;2022-12-10T14:25:10;0.06;98.32
66343;DHT22;53144;51.524;5.080;2022-12-10T14:27:37;0.11;98.40
66343;DHT22;53144;51.524;5.080;2022-12-10T14:33:26;-0.09;98.21
66343;DHT22;53144;51.524;5.080;2022-12-10T14:35:52;0.01;98.64
66343;DHT22;53144;51.524;5.080;2022-12-10T14:38:34;0.08;98.58
66343;DHT22;53144;51.524;5.080;2022-12-10T14:41:01;0.08;98.79
66343;DHT22;53144;51.524;5.080;2022-12-10T14:43:37;0.11;98.74
66343;DHT22;53144;51.524;5.080;2022-12-10T14:46:04;0.09;98.72
66343;DHT22;53144;51.524;5.080;2022-12-10T14:48:40;0.19;98.80
66343;DHT22;53144;51.524;5.080;2022-12-10T14:51:21;0.09;98.40
66343;DHT22;53144;51.524;5.080;2022-12-10T14:53:54;0.15;98.53
66343;DHT22;53144;51.524;5.080;2022-12-10T14:56:35;0.06;98.35
66343;DHT22;53144;51.524;5.080;2022-12-10T14:59:13;0.05;98.79
66343;DHT22;53144;51.524;5.080;2022-12-10T15:01:46;0.08;98.77
66343;DHT22;53144;51.524;5.080;2022-12-10T15:04:16;-0.02;98.78
66343;DHT22;53144;51.524;5.080;2022-12-10T15:06:45;0.06;98.97
66343;DHT22;53144;51.524;5.080;2022-12-10T15:09:22;0.03;98.93
66343;DHT22;53144;51.524;5.080;2022-12-10T15:12:01;-0.05;98.88
66343;DHT22;53144;51.524;5.080;2022-12-10T15:14:31;-0.08;99.10
66343;DHT22;53144;51.524;5.080;2022-12-10T15:16:57;-0.01;99.23
66343;DHT22;53144;51.524;5.080;2022-12-10T15:19:43;0.02;99.44
66343;DHT22;53144;51.524;5.080;2022-12-10T15:24:48;0.15;99.12
66343;DHT22;53144;51.524;5.080;2022-12-10T15:27:21;0.05;99.06
66343;DHT22;53144;51.524;5.080;2022-12-10T15:29:48;0.06;99.45
66343;DHT22;53144;51.524;5.080;2022-12-10T15:32:23;0.08;99.51
66343;DHT22;53144;51.524;5.080;2022-12-10T15:34:57;0.06;99.31
66343;DHT22;53144;51.524;5.080;2022-12-10T15:37:33;0.05;99.28
66343;DHT22;53144;51.524;5.080;2022-12-10T15:40:02;0.13;99.28
66343;DHT22;53144;51.524;5.080;2022-12-10T15:42:36;0.08;99.33
66343;DHT22;53144;51.524;5.080;2022-12-10T15:45:23;0.11;99.37
66343;DHT22;53144;51.524;5.080;2022-12-10T15:47:56;0.16;99.36
66343;DHT22;53144;51.524;5.080;2022-12-10T15:50:31;0.03;99.21
66343;DHT22;53144;51.524;5.080;2022-12-10T15:52:57;0.03;99.53
66343;DHT22;53144;51.524;5.080;2022-12-10T15:55:24;0.09;99.50
66343;DHT22;53144;51.524;5.080;2022-12-10T15:57:53;0.08;99.41
66343;DHT22;53144;51.524;5.080;2022-12-10T16:00:23;0.16;99.56
66343;DHT22;53144;51.524;5.080;2022-12-10T16:03:03;0.08;99.44
66343;DHT22;53144;51.524;5.080;2022-12-10T16:05:35;0.08;99.74
66343;DHT22;53144;51.524;5.080;2022-12-10T16:08:08;0.02;99.71
66343;DHT22;53144;51.524;5.080;2022-12-10T16:10:37;0.05;99.91
66343;DHT22;53144;51.524;5.080;2022-12-10T16:13:05;-0.02;99.92
66343;DHT22;53144;51.524;5.080;2022-12-10T16:15:33;0.13;99.97
66343;DHT22;53144;51.524;5.080;2022-12-10T16:18:03;0.19;99.85
66343;DHT22;53144;51.524;5.080;2022-12-10T16:20:30;0.13;99.74
66343;DHT22;53144;51.524;5.080;2022-12-10T16:22:57;0.19;99.69
66343;DHT22;53144;51.524;5.080;2022-12-10T16:25:27;0.18;99.49
66343;DHT22;53144;51.524;5.080;2022-12-10T16:27:54;0.15;99.54
66343;DHT22;53144;51.524;5.080;2022-12-10T16:30:43;0.19;99.64
66343;DHT22;53144;51.524;5.080;2022-12-10T16:33:09;0.18;99.54
66343;DHT22;53144;51.524;5.080;2022-12-10T16:35:34;0.22;99.51
66343;DHT22;53144;51.524;5.080;2022-12-10T16:38:00;0.19;99.34
66343;DHT22;53144;51.524;5.080;2022-12-10T16:40:29;0.18;99.38
66343;DHT22;53144;51.524;5.080;2022-12-10T16:42:55;0.15;99.52
66343;DHT22;53144;51.524;5.080;2022-12-10T16:45:23;0.16;99.62
66343;DHT22;53144;51.524;5.080;2022-12-10T16:47:49;0.19;99.83
66343;DHT22;53144;51.524;5.080;2022-12-10T16:50:15;0.20;99.84
66343;DHT22;53144;51.524;5.080;2022-12-10T16:52:43;0.28;99.81
66343;DHT22;53144;51.524;5.080;2022-12-10T16:55:17;0.32;99.57
66343;DHT22;53144;51.524;5.080;2022-12-10T16:57:44;0.28;99.51
66343;DHT22;53144;51.524;5.080;2022-12-10T17:00:16;0.25;99.54
66343;DHT22;53144;51.524;5.080;2022-12-10T17:02:44;0.29;99.62
66343;DHT22;53144;51.524;5.080;2022-12-10T17:05:14;0.36;99.79
66343;DHT22;53144;51.524;5.080;2022-12-10T17:07:40;0.39;99.72
66343;DHT22;53144;51.524;5.080;2022-12-10T17:10:11;0.39;99.61
66343;DHT22;53144;51.524;5.080;2022-12-10T17:12:37;0.43;99.49
66343;DHT22;53144;51.524;5.080;2022-12-10T17:15:03;0.45;99.62